sensor_id;sensor_type;location;lat;lon;timestamp;pressure;altitude;pressure_sealevel;temperature;humidity
7026;BME280;3554;42.132;24.786;2024-02-26T00:00:22;99271.19;;;12.14;100.00
7026;BME280;3554;42.132;24.786;2024-02-26T00:02:49;99249.34;;;12.13;100.00
7026;BME280;3554;42.132;24.786;2024-02-26T00:05:17;99232.63;;;12.16;100.00
7026;BME280;3554;42.132;24.786;2024-02-26T00:07:44;99213.34;;;11.98;100.00
7026;BME280;3554;42.132;24.786;2024-02-26T00:10:12;99197.94;;;11.73;100.00
7026;BME280;3554;42.132;24.786;2024-02-26T00:12:40;99156.09;;;11.53;100.00
7026;BME280;3554;42.132;24.786;2024-02-26T00:15:08;99204.31;;;11.87;100.00
7026;BME280;3554;42.132;24.786;2024-02-26T00:17:35;99186.69;;;11.71;100.00
7026;BME280;3554;42.132;24.786;2024-02-26T00:20:02;99187.19;;;11.79;100.00
7026;BME280;3554;42.132;24.786;2024-02-26T00:22:31;99189.00;;;11.96;100.00
7026;BME280;3554;42.132;24.786;2024-02-26T00:24:58;99176.63;;;11.98;100.00
7026;BME280;3554;42.132;24.786;2024-02-26T00:27:25;99164.16;;;12.03;100.00
7026;BME280;3554;42.132;24.786;2024-02-26T00:29:52;99153.34;;;12.09;100.00
7026;BME280;3554;42.132;24.786;2024-02-26T00:32:19;99144.47;;;12.12;100.00
7026;BME280;3554;42.132;24.786;2024-02-26T00:34:46;99146.06;;;12.14;100.00
7026;BME280;3554;42.132;24.786;2024-02-26T00:37:13;99134.59;;;12.17;100.00
7026;BME280;3554;42.132;24.786;2024-02-26T00:39:41;99128.28;;;12.21;100.00
7026;BME280;3554;42.132;24.786;2024-02-26T00:42:08;99107.38;;;12.19;100.00
7026;BME280;3554;42.132;24.786;2024-02-26T00:44:35;99108.13;;;12.04;100.00
7026;BME280;3554;42.132;24.786;2024-02-26T00:47:02;99106.97;;;12.10;100.00
7026;BME280;3554;42.132;24.786;2024-02-26T00:49:29;99093.59;;;12.14;100.00
7026;BME280;3554;42.132;24.786;2024-02-26T00:51:56;99065.00;;;11.93;100.00
7026;BME280;3554;42.132;24.786;2024-02-26T00:54:23;99063.53;;;12.04;100.00
7026;BME280;3554;42.132;24.786;2024-02-26T00:56:51;99070.09;;;11.96;100.00
7026;BME280;3554;42.132;24.786;2024-02-26T00:59:18;99015.38;;;11.37;100.00
7026;BME280;3554;42.132;24.786;2024-02-26T01:01:45;99056.19;;;11.59;100.00
7026;BME280;3554;42.132;24.786;2024-02-26T01:04:12;99050.75;;;11.28;100.00
7026;BME280;3554;42.132;24.786;2024-02-26T01:06:39;99083.31;;;10.48;100.00
7026;BME280;3554;42.132;24.786;2024-02-26T01:09:06;99148.63;;;10.51;100.00
7026;BME280;3554;42.132;24.786;2024-02-26T01:11:33;99236.03;;;10.67;100.00
7026;BME280;3554;42.132;24.786;2024-02-26T01:14:02;99314.81;;;10.82;100.00
7026;BME280;3554;42.132;24.786;2024-02-26T01:16:29;99393.50;;;10.99;100.00
7026;BME280;3554;42.132;24.786;2024-02-26T01:18:57;99416.28;;;10.97;100.00
7026;BME280;3554;42.132;24.786;2024-02-26T01:21:24;99446.88;;;10.74;100.00
7026;BME280;3554;42.132;24.786;2024-02-26T01:23:52;99478.97;;;10.79;100.00
7026;BME280;3554;42.132;24.786;2024-02-26T01:26:19;99519.75;;;10.85;100.00
7026;BME280;3554;42.132;24.786;2024-02-26T01:28:48;99567.34;;;10.96;100.00
7026;BME280;3554;42.132;24.786;2024-02-26T01:31:16;99566.63;;;11.14;100.00
7026;BME280;3554;42.132;24.786;2024-02-26T01:33:43;99561.72;;;11.27;100.00
7026;BME280;3554;42.132;24.786;2024-02-26T01:36:10;99541.09;;;10.98;100.00
7026;BME280;3554;42.132;24.786;2024-02-26T01:38:37;99554.41;;;10.92;100.00
7026;BME280;3554;42.132;24.786;2024-02-26T01:41:04;99559.06;;;11.07;100.00
7026;BME280;3554;42.132;24.786;2024-02-26T01:43:32;99522.91;;;11.15;100.00
7026;BME280;3554;42.132;24.786;2024-02-26T01:45:59;99528.38;;;11.30;100.00
7026;BME280;3554;42.132;24.786;2024-02-26T01:48:27;99512.28;;;11.39;100.00
7026;BME280;3554;42.132;24.786;2024-02-26T01:50:54;99486.63;;;11.47;100.00
7026;BME280;3554;42.132;24.786;2024-02-26T01:53:22;99446.97;;;11.55;100.00
7026;BME280;3554;42.132;24.786;2024-02-26T01:55:49;99411.94;;;11.37;100.00
7026;BME280;3554;42.132;24.786;2024-02-26T01:58:16;99391.69;;;11.41;100.00
7026;BME280;3554;42.132;24.786;2024-02-26T02:00:43;99397.75;;;11.61;100.00
7026;BME280;3554;42.132;24.786;2024-02-26T02:03:10;99375.19;;;11.77;100.00
7026;BME280;3554;42.132;24.786;2024-02-26T02:05:38;99346.84;;;11.85;100.00
7026;BME280;3554;42.132;24.786;2024-02-26T02:08:07;99319.44;;;11.54;100.00
7026;BME280;3554;42.132;24.786;2024-02-26T02:10:35;99315.84;;;10.98;100.00
7026;BME280;3554;42.132;24.786;2024-02-26T02:13:03;99374.00;;;10.86;100.00
7026;BME280;3554;42.132;24.786;2024-02-26T02:15:30;99427.69;;;10.96;100.00
7026;BME280;3554;42.132;24.786;2024-02-26T02:17:57;99441.44;;;10.79;100.00
7026;BME280;3554;42.132;24.786;2024-02-26T02:20:26;99498.25;;;10.99;100.00
7026;BME280;3554;42.132;24.786;2024-02-26T02:22:53;99505.16;;;11.01;100.00
7026;BME280;3554;42.132;24.786;2024-02-26T02:25:20;99517.97;;;11.07;100.00
7026;BME280;3554;42.132;24.786;2024-02-26T02:27:47;99502.88;;;11.14;100.00
7026;BME280;3554;42.132;24.786;2024-02-26T02:30:14;99499.16;;;11.39;100.00
7026;BME280;3554;42.132;24.786;2024-02-26T02:32:42;99458.66;;;11.48;100.00
7026;BME280;3554;42.132;24.786;2024-02-26T02:35:09;99433.66;;;11.39;100.00
7026;BME280;3554;42.132;24.786;2024-02-26T02:37:37;99389.94;;;11.21;100.00
7026;BME280;3554;42.132;24.786;2024-02-26T02:40:06;99394.31;;;11.41;100.00
7026;BME280;3554;42.132;24.786;2024-02-26T02:42:33;99385.03;;;11.52;100.00
7026;BME280;3554;42.132;24.786;2024-02-26T02:45:00;99353.09;;;11.44;100.00
7026;BME280;3554;42.132;24.786;2024-02-26T02:47:27;99333.81;;;11.45;100.00
7026;BME280;3554;42.132;24.786;2024-02-26T02:49:54;99317.00;;;11.31;100.00
7026;BME280;3554;42.132;24.786;2024-02-26T02:52:21;99330.81;;;11.34;100.00
7026;BME280;3554;42.132;24.786;2024-02-26T02:54:49;99327.00;;;11.41;100.00
7026;BME280;3554;42.132;24.786;2024-02-26T02:57:16;99319.69;;;11.29;100.00
7026;BME280;3554;42.132;24.786;2024-02-26T02:59:43;99326.25;;;11.19;100.00
7026;BME280;3554;42.132;24.786;2024-02-26T03:02:10;99324.28;;;10.84;100.00
7026;BME280;3554;42.132;24.786;2024-02-26T03:04:37;99345.16;;;10.65;100.00
7026;BME280;3554;42.132;24.786;2024-02-26T03:07:04;99392.34;;;10.84;100.00
7026;BME280;3554;42.132;24.786;2024-02-26T03:09:31;99406.53;;;11.00;100.00
7026;BME280;3554;42.132;24.786;2024-02-26T03:11:59;99419.47;;;10.83;100.00
7026;BME280;3554;42.132;24.786;2024-02-26T03:14:26;99437.00;;;10.81;100.00
7026;BME280;3554;42.132;24.786;2024-02-26T03:16:54;99452.28;;;10.92;100.00
7026;BME280;3554;42.132;24.786;2024-02-26T03:19:21;99458.53;;;10.88;100.00
7026;BME280;3554;42.132;24.786;2024-02-26T03:21:48;99453.63;;;11.02;100.00
7026;BME280;3554;42.132;24.786;2024-02-26T03:24:15;99438.75;;;11.02;100.00
7026;BME280;3554;42.132;24.786;2024-02-26T03:26:42;99426.28;;;10.87;100.00
7026;BME280;3554;42.132;24.786;2024-02-26T03:29:11;99439.00;;;10.96;100.00
7026;BME280;3554;42.132;24.786;2024-02-26T03:31:38;99430.72;;;10.85;100.00
7026;BME280;3554;42.132;24.786;2024-02-26T03:34:05;99430.13;;;10.78;100.00
7026;BME280;3554;42.132;24.786;2024-02-26T03:36:31;99454.81;;;10.93;100.00
7026;BME280;3554;42.132;24.786;2024-02-26T03:38:58;99426.78;;;10.53;100.00
7026;BME280;3554;42.132;24.786;2024-02-26T03:41:25;99459.66;;;10.60;100.00
7026;BME280;3554;42.132;24.786;2024-02-26T03:43:53;99487.00;;;10.75;100.00
7026;BME280;3554;42.132;24.786;2024-02-26T03:46:21;99487.03;;;10.73;100.00
7026;BME280;3554;42.132;24.786;2024-02-26T03:48:48;99483.88;;;10.65;100.00
7026;BME280;3554;42.132;24.786;2024-02-26T03:51:15;99481.41;;;10.62;100.00
7026;BME280;3554;42.132;24.786;2024-02-26T03:53:42;99500.56;;;10.63;100.00
7026;BME280;3554;42.132;24.786;2024-02-26T03:56:11;99527.88;;;10.56;100.00
7026;BME280;3554;42.132;24.786;2024-02-26T03:58:38;99543.28;;;10.63;100.00
7026;BME280;3554;42.132;24.786;2024-02-26T04:01:07;99565.91;;;10.43;100.00
7026;BME280;3554;42.132;24.786;2024-02-26T04:03:36;99593.94;;;10.39;100.00
7026;BME280;3554;42.132;24.786;2024-02-26T04:06:03;99608.09;;;10.34;100.00
7026;BME280;3554;42.132;24.786;2024-02-26T04:08:30;99598.75;;;10.27;100.00
7026;BME280;3554;42.132;24.786;2024-02-26T04:10:57;99607.41;;;10.29;100.00
7026;BME280;3554;42.132;24.786;2024-02-26T04:13:25;99594.94;;;10.35;100.00
7026;BME280;3554;42.132;24.786;2024-02-26T04:15:52;99586.97;;;10.38;100.00
7026;BME280;3554;42.132;24.786;2024-02-26T04:18:19;99556.03;;;10.26;100.00
7026;BME280;3554;42.132;24.786;2024-02-26T04:20:47;99545.25;;;10.35;100.00
7026;BME280;3554;42.132;24.786;2024-02-26T04:23:14;99489.97;;;10.21;100.00
7026;BME280;3554;42.132;24.786;2024-02-26T04:25:41;99491.84;;;10.41;100.00
7026;BME280;3554;42.132;24.786;2024-02-26T04:28:08;99459.84;;;10.33;100.00
7026;BME280;3554;42.132;24.786;2024-02-26T04:30:35;99450.88;;;10.40;100.00
7026;BME280;3554;42.132;24.786;2024-02-26T04:33:02;99422.72;;;10.46;100.00
7026;BME280;3554;42.132;24.786;2024-02-26T04:35:29;99397.94;;;10.33;100.00
7026;BME280;3554;42.132;24.786;2024-02-26T04:37:58;99383.16;;;10.32;100.00
7026;BME280;3554;42.132;24.786;2024-02-26T04:40:25;99384.84;;;10.33;100.00
7026;BME280;3554;42.132;24.786;2024-02-26T04:42:52;99361.75;;;10.44;100.00
7026;BME280;3554;42.132;24.786;2024-02-26T04:45:19;99342.69;;;10.41;100.00
7026;BME280;3554;42.132;24.786;2024-02-26T04:47:46;99322.72;;;10.38;100.00
7026;BME280;3554;42.132;24.786;2024-02-26T04:50:13;99314.81;;;10.40;100.00
7026;BME280;3554;42.132;24.786;2024-02-26T04:52:40;99286.38;;;10.32;100.00
7026;BME280;3554;42.132;24.786;2024-02-26T04:55:09;99288.78;;;10.37;100.00
7026;BME280;3554;42.132;24.786;2024-02-26T04:57:36;99292.25;;;10.37;100.00
7026;BME280;3554;42.132;24.786;2024-02-26T05:00:04;99278.72;;;10.48;100.00
7026;BME280;3554;42.132;24.786;2024-02-26T05:02:31;99270.03;;;10.67;100.00
7026;BME280;3554;42.132;24.786;2024-02-26T05:05:04;99256.56;;;10.56;100.00
7026;BME280;3554;42.132;24.786;2024-02-26T05:07:31;99236.28;;;10.61;100.00
7026;BME280;3554;42.132;24.786;2024-02-26T05:09:58;99204.06;;;10.59;100.00
7026;BME280;3554;42.132;24.786;2024-02-26T05:12:26;99207.16;;;10.69;100.00
7026;BME280;3554;42.132;24.786;2024-02-26T05:14:53;99193.88;;;10.53;100.00
7026;BME280;3554;42.132;24.786;2024-02-26T05:17:20;99189.69;;;10.49;100.00
7026;BME280;3554;42.132;24.786;2024-02-26T05:19:47;99202.53;;;10.55;100.00
7026;BME280;3554;42.132;24.786;2024-02-26T05:22:14;99171.25;;;10.52;100.00
7026;BME280;3554;42.132;24.786;2024-02-26T05:24:42;99184.16;;;10.75;100.00
7026;BME280;3554;42.132;24.786;2024-02-26T05:27:09;99172.00;;;10.74;100.00
7026;BME280;3554;42.132;24.786;2024-02-26T05:29:39;99180.75;;;10.73;100.00
7026;BME280;3554;42.132;24.786;2024-02-26T05:32:06;99164.53;;;10.86;100.00
7026;BME280;3554;42.132;24.786;2024-02-26T05:34:33;99172.50;;;10.82;100.00
7026;BME280;3554;42.132;24.786;2024-02-26T05:37:00;99167.22;;;11.03;100.00
7026;BME280;3554;42.132;24.786;2024-02-26T05:39:27;99154.34;;;11.17;100.00
7026;BME280;3554;42.132;24.786;2024-02-26T05:41:54;99135.09;;;11.18;100.00
7026;BME280;3554;42.132;24.786;2024-02-26T05:44:22;99137.13;;;11.30;100.00
7026;BME280;3554;42.132;24.786;2024-02-26T05:46:51;99113.41;;;11.33;100.00
7026;BME280;3554;42.132;24.786;2024-02-26T05:49:18;99071.63;;;11.30;100.00
7026;BME280;3554;42.132;24.786;2024-02-26T05:51:45;99072.41;;;11.32;100.00
7026;BME280;3554;42.132;24.786;2024-02-26T05:54:12;99077.06;;;11.44;100.00
7026;BME280;3554;42.132;24.786;2024-02-26T05:56:39;99066.66;;;11.42;100.00
7026;BME280;3554;42.132;24.786;2024-02-26T05:59:06;99012.00;;;10.99;100.00
7026;BME280;3554;42.132;24.786;2024-02-26T06:01:33;99077.47;;;11.18;100.00
7026;BME280;3554;42.132;24.786;2024-02-26T06:04:01;99080.22;;;11.15;100.00
7026;BME280;3554;42.132;24.786;2024-02-26T06:06:28;99078.88;;;11.25;100.00
7026;BME280;3554;42.132;24.786;2024-02-26T06:08:55;99077.94;;;11.26;100.00
7026;BME280;3554;42.132;24.786;2024-02-26T06:11:22;99083.91;;;11.46;100.00
7026;BME280;3554;42.132;24.786;2024-02-26T06:13:49;99085.53;;;11.32;100.00
7026;BME280;3554;42.132;24.786;2024-02-26T06:16:16;99077.22;;;11.41;100.00
7026;BME280;3554;42.132;24.786;2024-02-26T06:18:43;99080.91;;;11.37;100.00
7026;BME280;3554;42.132;24.786;2024-02-26T06:21:12;99089.22;;;11.45;100.00
7026;BME280;3554;42.132;24.786;2024-02-26T06:23:39;99087.72;;;11.58;100.00
7026;BME280;3554;42.132;24.786;2024-02-26T06:26:06;99080.81;;;11.74;100.00
7026;BME280;3554;42.132;24.786;2024-02-26T06:28:33;99073.09;;;11.88;100.00
7026;BME280;3554;42.132;24.786;2024-02-26T06:31:01;99069.03;;;12.00;100.00
7026;BME280;3554;42.132;24.786;2024-02-26T06:33:28;99052.66;;;11.95;100.00
7026;BME280;3554;42.132;24.786;2024-02-26T06:35:55;99055.56;;;11.54;100.00
7026;BME280;3554;42.132;24.786;2024-02-26T06:38:23;99005.66;;;11.22;100.00
7026;BME280;3554;42.132;24.786;2024-02-26T06:40:50;99064.91;;;11.60;100.00
7026;BME280;3554;42.132;24.786;2024-02-26T06:43:17;99067.53;;;11.77;100.00
7026;BME280;3554;42.132;24.786;2024-02-26T06:45:44;99065.31;;;11.69;100.00
7026;BME280;3554;42.132;24.786;2024-02-26T06:48:11;99075.22;;;11.63;100.00
7026;BME280;3554;42.132;24.786;2024-02-26T06:50:38;99026.03;;;11.34;100.00
7026;BME280;3554;42.132;24.786;2024-02-26T06:53:05;99078.66;;;11.46;100.00
7026;BME280;3554;42.132;24.786;2024-02-26T06:55:34;99079.84;;;11.41;100.00
7026;BME280;3554;42.132;24.786;2024-02-26T06:58:03;99095.59;;;11.39;100.00
7026;BME280;3554;42.132;24.786;2024-02-26T07:00:30;99110.63;;;11.36;100.00
7026;BME280;3554;42.132;24.786;2024-02-26T07:02:57;99112.25;;;11.38;100.00
7026;BME280;3554;42.132;24.786;2024-02-26T07:05:23;99113.06;;;11.57;100.00
7026;BME280;3554;42.132;24.786;2024-02-26T07:07:50;99119.44;;;11.70;100.00
7026;BME280;3554;42.132;24.786;2024-02-26T07:10:18;99111.66;;;11.69;100.00
7026;BME280;3554;42.132;24.786;2024-02-26T07:12:47;99095.41;;;11.79;100.00
7026;BME280;3554;42.132;24.786;2024-02-26T07:15:15;99085.38;;;11.88;100.00
7026;BME280;3554;42.132;24.786;2024-02-26T07:17:42;99079.91;;;11.92;100.00
7026;BME280;3554;42.132;24.786;2024-02-26T07:20:13;99069.25;;;11.78;100.00
7026;BME280;3554;42.132;24.786;2024-02-26T07:22:40;99074.75;;;11.91;100.00
7026;BME280;3554;42.132;24.786;2024-02-26T07:25:08;99071.25;;;11.90;100.00
7026;BME280;3554;42.132;24.786;2024-02-26T07:27:38;99075.47;;;11.93;100.00
7026;BME280;3554;42.132;24.786;2024-02-26T07:30:08;99073.63;;;12.12;100.00
7026;BME280;3554;42.132;24.786;2024-02-26T07:32:35;99058.41;;;12.18;100.00
7026;BME280;3554;42.132;24.786;2024-02-26T07:35:02;99062.81;;;12.18;100.00
7026;BME280;3554;42.132;24.786;2024-02-26T07:37:30;99057.94;;;12.27;100.00
7026;BME280;3554;42.132;24.786;2024-02-26T07:39:57;99048.13;;;12.31;100.00
7026;BME280;3554;42.132;24.786;2024-02-26T07:42:24;99052.31;;;12.35;100.00
7026;BME280;3554;42.132;24.786;2024-02-26T07:44:51;99035.47;;;12.39;100.00
7026;BME280;3554;42.132;24.786;2024-02-26T07:47:19;99031.97;;;12.23;100.00
7026;BME280;3554;42.132;24.786;2024-02-26T07:49:46;99030.63;;;11.81;100.00
7026;BME280;3554;42.132;24.786;2024-02-26T07:52:13;99030.53;;;11.66;100.00
7026;BME280;3554;42.132;24.786;2024-02-26T07:54:40;99049.53;;;11.71;100.00
7026;BME280;3554;42.132;24.786;2024-02-26T07:57:07;99051.50;;;11.66;100.00
7026;BME280;3554;42.132;24.786;2024-02-26T07:59:34;99057.28;;;11.90;100.00
7026;BME280;3554;42.132;24.786;2024-02-26T08:02:01;99061.00;;;11.68;100.00
7026;BME280;3554;42.132;24.786;2024-02-26T08:04:30;99053.69;;;11.92;100.00
7026;BME280;3554;42.132;24.786;2024-02-26T08:06:57;99061.03;;;12.18;100.00
7026;BME280;3554;42.132;24.786;2024-02-26T08:09:24;99066.78;;;12.42;100.00
7026;BME280;3554;42.132;24.786;2024-02-26T08:11:51;99044.13;;;12.56;100.00
7026;BME280;3554;42.132;24.786;2024-02-26T08:14:18;99041.22;;;12.45;100.00
7026;BME280;3554;42.132;24.786;2024-02-26T08:16:45;99029.97;;;12.43;100.00
7026;BME280;3554;42.132;24.786;2024-02-26T08:19:12;99024.44;;;12.32;100.00
7026;BME280;3554;42.132;24.786;2024-02-26T08:21:42;98973.06;;;11.78;100.00
7026;BME280;3554;42.132;24.786;2024-02-26T08:24:09;99020.69;;;12.21;100.00
7026;BME280;3554;42.132;24.786;2024-02-26T08:26:35;99018.59;;;12.43;100.00
7026;BME280;3554;42.132;24.786;2024-02-26T08:29:02;99020.41;;;12.58;100.00
7026;BME280;3554;42.132;24.786;2024-02-26T08:31:30;99016.34;;;12.68;100.00
7026;BME280;3554;42.132;24.786;2024-02-26T08:33:57;99004.31;;;12.95;100.00
7026;BME280;3554;42.132;24.786;2024-02-26T08:36:24;98990.34;;;13.10;100.00
7026;BME280;3554;42.132;24.786;2024-02-26T08:38:53;98975.94;;;13.17;100.00
7026;BME280;3554;42.132;24.786;2024-02-26T08:41:20;98972.03;;;12.93;100.00
7026;BME280;3554;42.132;24.786;2024-02-26T08:43:47;98978.22;;;12.76;100.00
7026;BME280;3554;42.132;24.786;2024-02-26T08:46:13;98979.56;;;12.83;100.00
7026;BME280;3554;42.132;24.786;2024-02-26T08:48:40;98975.34;;;12.97;100.00
7026;BME280;3554;42.132;24.786;2024-02-26T08:51:08;98976.00;;;13.00;100.00
7026;BME280;3554;42.132;24.786;2024-02-26T08:53:35;98962.72;;;13.19;100.00
7026;BME280;3554;42.132;24.786;2024-02-26T08:56:05;98970.31;;;13.23;100.00
7026;BME280;3554;42.132;24.786;2024-02-26T08:58:32;98966.41;;;13.30;100.00
7026;BME280;3554;42.132;24.786;2024-02-26T09:00:59;98962.00;;;13.31;100.00
7026;BME280;3554;42.132;24.786;2024-02-26T09:03:26;98953.19;;;13.46;100.00
7026;BME280;3554;42.132;24.786;2024-02-26T09:05:53;98962.19;;;13.71;100.00
7026;BME280;3554;42.132;24.786;2024-02-26T09:08:20;98961.19;;;13.88;100.00
7026;BME280;3554;42.132;24.786;2024-02-26T09:10:47;98951.44;;;14.04;100.00
7026;BME280;3554;42.132;24.786;2024-02-26T09:13:16;98946.72;;;14.23;100.00
7026;BME280;3554;42.132;24.786;2024-02-26T09:15:44;98949.06;;;14.28;100.00
7026;BME280;3554;42.132;24.786;2024-02-26T09:18:11;98952.66;;;14.41;100.00
7026;BME280;3554;42.132;24.786;2024-02-26T09:20:38;98939.47;;;14.41;100.00
7026;BME280;3554;42.132;24.786;2024-02-26T09:23:05;98949.34;;;14.37;100.00
7026;BME280;3554;42.132;24.786;2024-02-26T09:25:32;98948.34;;;14.40;100.00
7026;BME280;3554;42.132;24.786;2024-02-26T09:28:00;98914.56;;;14.18;100.00
7026;BME280;3554;42.132;24.786;2024-02-26T09:30:28;98943.00;;;14.27;100.00
7026;BME280;3554;42.132;24.786;2024-02-26T09:32:55;98939.41;;;14.28;100.00
7026;BME280;3554;42.132;24.786;2024-02-26T09:35:22;98947.75;;;14.35;100.00
7026;BME280;3554;42.132;24.786;2024-02-26T09:37:49;98940.25;;;14.29;100.00
7026;BME280;3554;42.132;24.786;2024-02-26T09:40:16;98938.25;;;14.46;100.00
7026;BME280;3554;42.132;24.786;2024-02-26T09:42:44;98930.38;;;14.73;100.00
7026;BME280;3554;42.132;24.786;2024-02-26T09:45:18;98933.97;;;14.72;100.00
7026;BME280;3554;42.132;24.786;2024-02-26T09:47:47;98927.63;;;14.74;100.00
7026;BME280;3554;42.132;24.786;2024-02-26T09:50:16;98932.25;;;14.97;100.00
7026;BME280;3554;42.132;24.786;2024-02-26T09:52:48;98929.84;;;14.94;100.00
7026;BME280;3554;42.132;24.786;2024-02-26T09:55:16;98932.84;;;15.15;100.00
7026;BME280;3554;42.132;24.786;2024-02-26T09:57:45;98920.69;;;15.39;100.00
7026;BME280;3554;42.132;24.786;2024-02-26T10:00:17;98921.66;;;15.51;100.00
7026;BME280;3554;42.132;24.786;2024-02-26T10:02:47;98914.88;;;15.34;100.00
7026;BME280;3554;42.132;24.786;2024-02-26T10:05:17;98911.88;;;15.26;100.00
7026;BME280;3554;42.132;24.786;2024-02-26T10:07:45;98906.31;;;15.31;100.00
7026;BME280;3554;42.132;24.786;2024-02-26T10:10:13;98891.91;;;15.49;100.00
7026;BME280;3554;42.132;24.786;2024-02-26T10:12:40;98896.56;;;15.58;100.00
7026;BME280;3554;42.132;24.786;2024-02-26T10:15:08;98894.16;;;15.80;100.00
7026;BME280;3554;42.132;24.786;2024-02-26T10:17:36;98890.03;;;15.63;100.00
7026;BME280;3554;42.132;24.786;2024-02-26T10:20:13;98884.75;;;15.88;100.00
7026;BME280;3554;42.132;24.786;2024-02-26T10:22:43;98857.50;;;15.63;100.00
7026;BME280;3554;42.132;24.786;2024-02-26T10:25:10;98868.50;;;15.69;100.00
7026;BME280;3554;42.132;24.786;2024-02-26T10:27:37;98876.09;;;15.61;100.00
7026;BME280;3554;42.132;24.786;2024-02-26T10:30:05;98877.03;;;15.48;100.00
7026;BME280;3554;42.132;24.786;2024-02-26T10:32:42;98871.13;;;15.82;100.00
7026;BME280;3554;42.132;24.786;2024-02-26T10:35:09;98819.63;;;15.76;100.00
7026;BME280;3554;42.132;24.786;2024-02-26T10:37:38;98864.38;;;15.90;100.00
7026;BME280;3554;42.132;24.786;2024-02-26T10:40:10;98862.97;;;15.97;100.00
7026;BME280;3554;42.132;24.786;2024-02-26T10:42:37;98854.72;;;16.02;100.00
7026;BME280;3554;42.132;24.786;2024-02-26T10:45:05;98855.03;;;16.10;100.00
7026;BME280;3554;42.132;24.786;2024-02-26T10:47:33;98837.63;;;15.95;100.00
7026;BME280;3554;42.132;24.786;2024-02-26T10:50:02;98850.44;;;15.88;100.00
7026;BME280;3554;42.132;24.786;2024-02-26T10:52:31;98845.78;;;15.92;100.00
7026;BME280;3554;42.132;24.786;2024-02-26T10:55:02;98833.66;;;15.77;100.00
7026;BME280;3554;42.132;24.786;2024-02-26T10:57:33;98846.59;;;16.05;100.00
7026;BME280;3554;42.132;24.786;2024-02-26T11:00:02;98810.41;;;15.94;100.00
7026;BME280;3554;42.132;24.786;2024-02-26T11:02:31;98832.00;;;16.12;100.00
7026;BME280;3554;42.132;24.786;2024-02-26T11:05:00;98832.59;;;16.28;100.00
7026;BME280;3554;42.132;24.786;2024-02-26T11:07:29;98798.81;;;15.84;100.00
7026;BME280;3554;42.132;24.786;2024-02-26T11:09:57;98842.72;;;15.98;100.00
7026;BME280;3554;42.132;24.786;2024-02-26T11:12:28;98813.69;;;15.98;100.00
7026;BME280;3554;42.132;24.786;2024-02-26T11:14:55;98831.19;;;15.99;100.00
7026;BME280;3554;42.132;24.786;2024-02-26T11:17:26;98829.25;;;16.14;100.00
7026;BME280;3554;42.132;24.786;2024-02-26T11:19:55;98824.50;;;16.42;100.00
7026;BME280;3554;42.132;24.786;2024-02-26T11:22:23;98823.72;;;16.29;100.00
7026;BME280;3554;42.132;24.786;2024-02-26T11:24:53;98830.84;;;16.40;100.00
7026;BME280;3554;42.132;24.786;2024-02-26T11:27:25;98811.41;;;16.53;100.00
7026;BME280;3554;42.132;24.786;2024-02-26T11:29:58;98806.69;;;16.33;100.00
7026;BME280;3554;42.132;24.786;2024-02-26T11:32:26;98803.34;;;16.55;100.00
7026;BME280;3554;42.132;24.786;2024-02-26T11:34:56;98784.31;;;16.62;100.00
7026;BME280;3554;42.132;24.786;2024-02-26T11:37:23;98802.38;;;16.79;100.00
7026;BME280;3554;42.132;24.786;2024-02-26T11:39:52;98807.53;;;16.81;100.00
7026;BME280;3554;42.132;24.786;2024-02-26T11:42:23;98801.25;;;17.05;100.00
7026;BME280;3554;42.132;24.786;2024-02-26T11:44:51;98808.66;;;16.89;100.00
7026;BME280;3554;42.132;24.786;2024-02-26T11:47:21;98804.59;;;16.96;100.00
7026;BME280;3554;42.132;24.786;2024-02-26T11:49:49;98779.59;;;17.00;100.00
7026;BME280;3554;42.132;24.786;2024-02-26T11:52:16;98776.09;;;16.89;100.00
7026;BME280;3554;42.132;24.786;2024-02-26T11:54:44;98797.69;;;17.18;100.00
7026;BME280;3554;42.132;24.786;2024-02-26T11:57:22;98794.69;;;17.22;100.00
7026;BME280;3554;42.132;24.786;2024-02-26T11:59:49;98772.19;;;16.71;100.00
7026;BME280;3554;42.132;24.786;2024-02-26T12:02:43;98797.66;;;16.72;100.00
7026;BME280;3554;42.132;24.786;2024-02-26T12:05:12;98784.41;;;16.95;100.00
7026;BME280;3554;42.132;24.786;2024-02-26T12:07:43;98782.38;;;16.99;100.00
7026;BME280;3554;42.132;24.786;2024-02-26T12:10:23;98778.78;;;17.11;100.00
7026;BME280;3554;42.132;24.786;2024-02-26T12:12:58;98773.50;;;17.11;100.00
7026;BME280;3554;42.132;24.786;2024-02-26T12:15:31;98779.41;;;17.26;100.00
7026;BME280;3554;42.132;24.786;2024-02-26T12:18:02;98775.69;;;17.39;100.00
7026;BME280;3554;42.132;24.786;2024-02-26T12:20:30;98771.97;;;17.31;100.00
7026;BME280;3554;42.132;24.786;2024-02-26T12:22:57;98761.38;;;17.31;100.00
7026;BME280;3554;42.132;24.786;2024-02-26T12:25:26;98768.78;;;17.60;100.00
7026;BME280;3554;42.132;24.786;2024-02-26T12:27:53;98775.84;;;17.82;100.00
7026;BME280;3554;42.132;24.786;2024-02-26T12:30:20;98768.28;;;17.77;100.00
7026;BME280;3554;42.132;24.786;2024-02-26T12:32:48;98776.56;;;17.84;100.00
7026;BME280;3554;42.132;24.786;2024-02-26T12:35:17;98753.25;;;17.78;100.00
7026;BME280;3554;42.132;24.786;2024-02-26T12:37:44;98768.88;;;17.70;100.00
7026;BME280;3554;42.132;24.786;2024-02-26T12:40:12;98762.75;;;17.47;100.00
7026;BME280;3554;42.132;24.786;2024-02-26T12:42:39;98764.19;;;17.62;100.00
7026;BME280;3554;42.132;24.786;2024-02-26T12:45:08;98764.91;;;17.86;100.00
7026;BME280;3554;42.132;24.786;2024-02-26T12:47:36;98762.00;;;17.89;100.00
7026;BME280;3554;42.132;24.786;2024-02-26T12:50:05;98756.22;;;17.84;100.00
7026;BME280;3554;42.132;24.786;2024-02-26T12:52:34;98760.94;;;17.92;100.00
7026;BME280;3554;42.132;24.786;2024-02-26T12:55:02;98763.56;;;18.03;100.00
7026;BME280;3554;42.132;24.786;2024-02-26T12:57:31;98757.16;;;18.05;100.00
7026;BME280;3554;42.132;24.786;2024-02-26T12:59:58;98761.25;;;18.09;100.00
7026;BME280;3554;42.132;24.786;2024-02-26T13:02:26;98755.25;;;17.96;100.00